sensor_id;sensor_type;location;lat;lon;timestamp;temperature;humidity
78490;DHT22;67776;52.012;4.736;2023-04-30T00:01:46;9.80;79.06
78490;DHT22;67776;52.012;4.736;2023-04-30T00:04:12;9.77;79.33
78490;DHT22;67776;52.012;4.736;2023-04-30T00:06:37;9.66;79.32
78490;DHT22;67776;52.012;4.736;2023-04-30T00:09:02;9.39;80.47
78490;DHT22;67776;52.012;4.736;2023-04-30T00:11:28;9.32;80.88
78490;DHT22;67776;52.012;4.736;2023-04-30T00:13:53;9.25;81.33
78490;DHT22;67776;52.012;4.736;2023-04-30T00:16:21;9.23;81.75
78490;DHT22;67776;52.012;4.736;2023-04-30T00:18:46;9.18;81.90
78490;DHT22;67776;52.012;4.736;2023-04-30T00:21:11;9.15;81.63
78490;DHT22;67776;52.012;4.736;2023-04-30T00:23:36;9.18;81.46
78490;DHT22;67776;52.012;4.736;2023-04-30T00:26:02;9.33;80.69
78490;DHT22;67776;52.012;4.736;2023-04-30T00:28:27;9.38;80.45
78490;DHT22;67776;52.012;4.736;2023-04-30T00:30:52;9.10;81.62
78490;DHT22;67776;52.012;4.736;2023-04-30T00:33:18;9.01;81.50
78490;DHT22;67776;52.012;4.736;2023-04-30T00:35:43;9.12;80.65
78490;DHT22;67776;52.012;4.736;2023-04-30T00:38:09;8.94;82.03
78490;DHT22;67776;52.012;4.736;2023-04-30T00:40:35;9.05;81.82
78490;DHT22;67776;52.012;4.736;2023-04-30T00:43:01;9.16;80.98
78490;DHT22;67776;52.012;4.736;2023-04-30T00:45:26;9.10;80.76
78490;DHT22;67776;52.012;4.736;2023-04-30T00:47:52;8.92;81.82
78490;DHT22;67776;52.012;4.736;2023-04-30T00:50:17;8.91;82.28
78490;DHT22;67776;52.012;4.736;2023-04-30T00:52:43;9.02;81.31
78490;DHT22;67776;52.012;4.736;2023-04-30T00:55:12;9.12;80.65
78490;DHT22;67776;52.012;4.736;2023-04-30T00:57:38;9.05;80.47
78490;DHT22;67776;52.012;4.736;2023-04-30T01:00:06;9.01;80.96
78490;DHT22;67776;52.012;4.736;2023-04-30T01:02:34;9.05;81.16
78490;DHT22;67776;52.012;4.736;2023-04-30T01:05:01;8.78;82.41
78490;DHT22;67776;52.012;4.736;2023-04-30T01:07:28;8.81;82.85
78490;DHT22;67776;52.012;4.736;2023-04-30T01:09:53;8.88;82.47
78490;DHT22;67776;52.012;4.736;2023-04-30T01:12:29;8.89;82.70
78490;DHT22;67776;52.012;4.736;2023-04-30T01:17:33;8.94;82.72
78490;DHT22;67776;52.012;4.736;2023-04-30T01:20:00;8.98;82.40
78490;DHT22;67776;52.012;4.736;2023-04-30T01:28:01;8.92;82.74
78490;DHT22;67776;52.012;4.736;2023-04-30T01:30:28;8.94;83.25
78490;DHT22;67776;52.012;4.736;2023-04-30T01:32:54;8.97;82.61
78490;DHT22;67776;52.012;4.736;2023-04-30T01:35:28;8.95;82.86
78490;DHT22;67776;52.012;4.736;2023-04-30T01:41:09;8.74;84.40
78490;DHT22;67776;52.012;4.736;2023-04-30T01:51:40;8.83;83.94
78490;DHT22;67776;52.012;4.736;2023-04-30T01:54:26;8.63;84.05
78490;DHT22;67776;52.012;4.736;2023-04-30T01:57:06;8.64;84.32
78490;DHT22;67776;52.012;4.736;2023-04-30T01:59:37;8.59;84.20
78490;DHT22;67776;52.012;4.736;2023-04-30T02:02:03;8.67;84.06
78490;DHT22;67776;52.012;4.736;2023-04-30T02:04:28;8.70;84.10
78490;DHT22;67776;52.012;4.736;2023-04-30T02:06:54;8.68;83.81
78490;DHT22;67776;52.012;4.736;2023-04-30T02:09:19;8.60;83.90
78490;DHT22;67776;52.012;4.736;2023-04-30T02:11:48;8.56;83.68
78490;DHT22;67776;52.012;4.736;2023-04-30T02:14:13;8.43;85.14
78490;DHT22;67776;52.012;4.736;2023-04-30T02:16:38;8.46;85.07
78490;DHT22;67776;52.012;4.736;2023-04-30T02:19:04;8.56;84.02
78490;DHT22;67776;52.012;4.736;2023-04-30T02:21:29;8.53;83.73
78490;DHT22;67776;52.012;4.736;2023-04-30T02:23:55;8.47;84.06
78490;DHT22;67776;52.012;4.736;2023-04-30T02:26:20;8.28;85.61
78490;DHT22;67776;52.012;4.736;2023-04-30T02:28:52;8.36;84.84
78490;DHT22;67776;52.012;4.736;2023-04-30T02:31:30;8.38;85.08
78490;DHT22;67776;52.012;4.736;2023-04-30T02:33:55;8.39;84.86
78490;DHT22;67776;52.012;4.736;2023-04-30T02:36:21;8.32;85.57
78490;DHT22;67776;52.012;4.736;2023-04-30T02:38:46;8.28;85.75
78490;DHT22;67776;52.012;4.736;2023-04-30T02:41:11;8.29;85.25
78490;DHT22;67776;52.012;4.736;2023-04-30T02:43:36;8.22;86.32
78490;DHT22;67776;52.012;4.736;2023-04-30T02:46:02;8.06;86.09
78490;DHT22;67776;52.012;4.736;2023-04-30T02:48:28;8.09;86.91
78490;DHT22;67776;52.012;4.736;2023-04-30T02:50:53;8.16;86.58
78490;DHT22;67776;52.012;4.736;2023-04-30T02:53:18;8.05;86.58
78490;DHT22;67776;52.012;4.736;2023-04-30T02:55:44;7.95;86.12
78490;DHT22;67776;52.012;4.736;2023-04-30T02:58:09;7.88;86.76
78490;DHT22;67776;52.012;4.736;2023-04-30T03:00:34;8.02;86.36
78490;DHT22;67776;52.012;4.736;2023-04-30T03:02:59;8.09;85.45
78490;DHT22;67776;52.012;4.736;2023-04-30T03:05:25;7.90;87.22
78490;DHT22;67776;52.012;4.736;2023-04-30T03:07:50;7.84;86.65
78490;DHT22;67776;52.012;4.736;2023-04-30T03:10:15;7.75;86.87
78490;DHT22;67776;52.012;4.736;2023-04-30T03:12:43;7.87;86.46
78490;DHT22;67776;52.012;4.736;2023-04-30T03:15:11;7.84;86.59
78490;DHT22;67776;52.012;4.736;2023-04-30T03:17:36;7.78;86.51
78490;DHT22;67776;52.012;4.736;2023-04-30T03:20:01;7.69;87.31
78490;DHT22;67776;52.012;4.736;2023-04-30T03:22:27;7.83;86.10
78490;DHT22;67776;52.012;4.736;2023-04-30T03:24:52;7.88;85.60
78490;DHT22;67776;52.012;4.736;2023-04-30T03:27:18;7.90;85.36
78490;DHT22;67776;52.012;4.736;2023-04-30T03:29:43;7.88;85.17
78490;DHT22;67776;52.012;4.736;2023-04-30T03:32:08;7.64;85.77
78490;DHT22;67776;52.012;4.736;2023-04-30T03:34:34;7.55;86.61
78490;DHT22;67776;52.012;4.736;2023-04-30T03:36:59;7.62;86.82
78490;DHT22;67776;52.012;4.736;2023-04-30T03:39:26;7.53;87.18
78490;DHT22;67776;52.012;4.736;2023-04-30T03:41:51;7.49;86.94
78490;DHT22;67776;52.012;4.736;2023-04-30T03:44:16;7.50;87.66
78490;DHT22;67776;52.012;4.736;2023-04-30T03:46:42;7.59;87.08
78490;DHT22;67776;52.012;4.736;2023-04-30T03:49:07;7.69;86.42
78490;DHT22;67776;52.012;4.736;2023-04-30T03:51:33;7.70;86.34
78490;DHT22;67776;52.012;4.736;2023-04-30T03:54:01;7.69;86.41
78490;DHT22;67776;52.012;4.736;2023-04-30T03:56:26;7.71;85.72
78490;DHT22;67776;52.012;4.736;2023-04-30T03:58:52;7.67;85.80
78490;DHT22;67776;52.012;4.736;2023-04-30T04:01:17;7.64;85.67
78490;DHT22;67776;52.012;4.736;2023-04-30T04:03:43;7.59;86.23
78490;DHT22;67776;52.012;4.736;2023-04-30T04:06:09;7.57;86.88
78490;DHT22;67776;52.012;4.736;2023-04-30T04:08:34;7.66;86.14
78490;DHT22;67776;52.012;4.736;2023-04-30T04:11:00;7.62;85.63
78490;DHT22;67776;52.012;4.736;2023-04-30T04:13:26;7.47;86.09
78490;DHT22;67776;52.012;4.736;2023-04-30T04:15:51;7.53;85.96
78490;DHT22;67776;52.012;4.736;2023-04-30T04:18:17;7.52;85.82
78490;DHT22;67776;52.012;4.736;2023-04-30T04:20:42;7.53;86.44
78490;DHT22;67776;52.012;4.736;2023-04-30T04:23:07;7.36;87.04
78490;DHT22;67776;52.012;4.736;2023-04-30T04:25:32;7.32;87.17
78490;DHT22;67776;52.012;4.736;2023-04-30T04:27:58;7.35;86.86
78490;DHT22;67776;52.012;4.736;2023-04-30T04:30:23;7.22;87.07
78490;DHT22;67776;52.012;4.736;2023-04-30T04:32:50;7.12;87.37
78490;DHT22;67776;52.012;4.736;2023-04-30T04:35:18;7.19;87.72
78490;DHT22;67776;52.012;4.736;2023-04-30T04:37:44;7.28;86.99
78490;DHT22;67776;52.012;4.736;2023-04-30T04:40:10;7.29;86.70
78490;DHT22;67776;52.012;4.736;2023-04-30T04:42:36;7.25;86.61
78490;DHT22;67776;52.012;4.736;2023-04-30T04:45:04;7.25;86.81
78490;DHT22;67776;52.012;4.736;2023-04-30T04:47:30;7.32;86.55
78490;DHT22;67776;52.012;4.736;2023-04-30T04:49:55;7.33;86.31
78490;DHT22;67776;52.012;4.736;2023-04-30T04:52:20;7.30;86.59
78490;DHT22;67776;52.012;4.736;2023-04-30T04:54:46;7.30;87.28
78490;DHT22;67776;52.012;4.736;2023-04-30T04:57:11;7.38;87.08
78490;DHT22;67776;52.012;4.736;2023-04-30T04:59:40;7.43;86.55
78490;DHT22;67776;52.012;4.736;2023-04-30T05:02:05;7.32;86.68
78490;DHT22;67776;52.012;4.736;2023-04-30T05:04:30;7.28;86.61
78490;DHT22;67776;52.012;4.736;2023-04-30T05:06:56;7.39;86.49
78490;DHT22;67776;52.012;4.736;2023-04-30T05:09:21;7.47;87.18
78490;DHT22;67776;52.012;4.736;2023-04-30T05:11:46;7.42;86.92
78490;DHT22;67776;52.012;4.736;2023-04-30T05:14:13;7.39;86.49
78490;DHT22;67776;52.012;4.736;2023-04-30T05:16:38;7.32;86.51
78490;DHT22;67776;52.012;4.736;2023-04-30T05:19:04;7.40;86.62
78490;DHT22;67776;52.012;4.736;2023-04-30T05:21:29;7.49;86.57
78490;DHT22;67776;52.012;4.736;2023-04-30T05:23:56;7.63;86.95
78490;DHT22;67776;52.012;4.736;2023-04-30T05:26:22;7.70;86.02
78490;DHT22;67776;52.012;4.736;2023-04-30T05:28:48;7.60;85.52
78490;DHT22;67776;52.012;4.736;2023-04-30T05:31:14;7.62;85.40
78490;DHT22;67776;52.012;4.736;2023-04-30T05:33:40;7.66;85.48
78490;DHT22;67776;52.012;4.736;2023-04-30T05:36:06;7.67;85.15
78490;DHT22;67776;52.012;4.736;2023-04-30T05:38:31;7.67;85.38
78490;DHT22;67776;52.012;4.736;2023-04-30T05:40:56;7.70;85.33
78490;DHT22;67776;52.012;4.736;2023-04-30T05:43:22;7.73;85.14
78490;DHT22;67776;52.012;4.736;2023-04-30T05:45:47;7.81;85.61
78490;DHT22;67776;52.012;4.736;2023-04-30T05:48:13;7.90;85.36
78490;DHT22;67776;52.012;4.736;2023-04-30T05:50:38;7.97;84.95
78490;DHT22;67776;52.012;4.736;2023-04-30T05:53:03;8.05;84.56
78490;DHT22;67776;52.012;4.736;2023-04-30T05:55:29;8.09;83.83
78490;DHT22;67776;52.012;4.736;2023-04-30T05:57:55;8.19;84.03
78490;DHT22;67776;52.012;4.736;2023-04-30T06:00:20;8.28;84.34
78490;DHT22;67776;52.012;4.736;2023-04-30T06:02:46;8.38;83.88
78490;DHT22;67776;52.012;4.736;2023-04-30T06:05:11;8.45;84.05
78490;DHT22;67776;52.012;4.736;2023-04-30T06:07:36;8.46;83.47
78490;DHT22;67776;52.012;4.736;2023-04-30T06:10:02;8.52;82.69
78490;DHT22;67776;52.012;4.736;2023-04-30T06:12:27;8.60;82.55
78490;DHT22;67776;52.012;4.736;2023-04-30T06:14:53;8.64;83.10
78490;DHT22;67776;52.012;4.736;2023-04-30T06:17:18;8.66;82.97
78490;DHT22;67776;52.012;4.736;2023-04-30T06:19:44;8.74;83.26
78490;DHT22;67776;52.012;4.736;2023-04-30T06:22:09;8.81;82.63
78490;DHT22;67776;52.012;4.736;2023-04-30T06:24:34;8.89;82.73
78490;DHT22;67776;52.012;4.736;2023-04-30T06:27:00;8.97;82.89
78490;DHT22;67776;52.012;4.736;2023-04-30T06:29:25;9.05;82.90
78490;DHT22;67776;52.012;4.736;2023-04-30T06:31:51;9.11;82.31
78490;DHT22;67776;52.012;4.736;2023-04-30T06:34:16;9.10;82.17
78490;DHT22;67776;52.012;4.736;2023-04-30T06:36:41;9.11;82.29
78490;DHT22;67776;52.012;4.736;2023-04-30T06:39:07;9.22;82.56
78490;DHT22;67776;52.012;4.736;2023-04-30T06:41:32;9.29;82.87
78490;DHT22;67776;52.012;4.736;2023-04-30T06:43:57;9.26;82.45
78490;DHT22;67776;52.012;4.736;2023-04-30T06:46:23;9.33;82.24
78490;DHT22;67776;52.012;4.736;2023-04-30T06:48:48;9.32;82.35
78490;DHT22;67776;52.012;4.736;2023-04-30T06:51:13;9.38;82.11
78490;DHT22;67776;52.012;4.736;2023-04-30T06:53:39;9.46;81.91
78490;DHT22;67776;52.012;4.736;2023-04-30T06:56:04;9.54;81.81
78490;DHT22;67776;52.012;4.736;2023-04-30T06:58:30;9.57;81.32
78490;DHT22;67776;52.012;4.736;2023-04-30T07:00:55;9.59;80.86
78490;DHT22;67776;52.012;4.736;2023-04-30T07:03:22;9.64;81.63
78490;DHT22;67776;52.012;4.736;2023-04-30T07:05:47;9.78;81.02
78490;DHT22;67776;52.012;4.736;2023-04-30T07:08:12;9.84;80.37
78490;DHT22;67776;52.012;4.736;2023-04-30T07:10:39;9.90;80.48
78490;DHT22;67776;52.012;4.736;2023-04-30T07:13:05;9.97;80.10
78490;DHT22;67776;52.012;4.736;2023-04-30T07:15:31;9.98;79.40
78490;DHT22;67776;52.012;4.736;2023-04-30T07:17:57;9.99;79.83
78490;DHT22;67776;52.012;4.736;2023-04-30T07:20:22;10.13;79.75
78490;DHT22;67776;52.012;4.736;2023-04-30T07:22:47;10.19;79.46
78490;DHT22;67776;52.012;4.736;2023-04-30T07:25:13;10.29;79.54
78490;DHT22;67776;52.012;4.736;2023-04-30T07:27:38;10.39;79.26
78490;DHT22;67776;52.012;4.736;2023-04-30T07:30:05;10.49;79.33
78490;DHT22;67776;52.012;4.736;2023-04-30T07:32:30;10.39;78.85
78490;DHT22;67776;52.012;4.736;2023-04-30T07:34:56;10.56;79.31
78490;DHT22;67776;52.012;4.736;2023-04-30T07:37:21;10.73;78.84
78490;DHT22;67776;52.012;4.736;2023-04-30T07:39:47;10.77;78.26
78490;DHT22;67776;52.012;4.736;2023-04-30T07:42:12;10.66;78.16
78490;DHT22;67776;52.012;4.736;2023-04-30T07:44:38;10.80;77.71
78490;DHT22;67776;52.012;4.736;2023-04-30T07:47:04;10.91;78.17
78490;DHT22;67776;52.012;4.736;2023-04-30T07:49:29;10.98;77.98
78490;DHT22;67776;52.012;4.736;2023-04-30T07:51:54;11.04;78.10
78490;DHT22;67776;52.012;4.736;2023-04-30T07:54:20;11.16;77.92
78490;DHT22;67776;52.012;4.736;2023-04-30T07:56:46;11.19;77.04
78490;DHT22;67776;52.012;4.736;2023-04-30T07:59:13;11.31;76.87
78490;DHT22;67776;52.012;4.736;2023-04-30T08:01:38;11.42;76.81
78490;DHT22;67776;52.012;4.736;2023-04-30T08:04:03;11.42;76.82
78490;DHT22;67776;52.012;4.736;2023-04-30T08:06:29;11.55;76.94
78490;DHT22;67776;52.012;4.736;2023-04-30T08:08:54;11.67;76.35
78490;DHT22;67776;52.012;4.736;2023-04-30T08:11:20;11.80;76.04
78490;DHT22;67776;52.012;4.736;2023-04-30T08:13:46;11.90;75.95
78490;DHT22;67776;52.012;4.736;2023-04-30T08:16:11;11.97;75.54
78490;DHT22;67776;52.012;4.736;2023-04-30T08:18:36;11.98;75.58
78490;DHT22;67776;52.012;4.736;2023-04-30T08:21:03;12.20;75.15
78490;DHT22;67776;52.012;4.736;2023-04-30T08:23:29;12.38;74.98
78490;DHT22;67776;52.012;4.736;2023-04-30T08:25:54;12.32;73.69
78490;DHT22;67776;52.012;4.736;2023-04-30T08:28:20;12.56;74.87
78490;DHT22;67776;52.012;4.736;2023-04-30T08:30:45;12.64;72.19
78490;DHT22;67776;52.012;4.736;2023-04-30T08:33:11;12.84;72.53
78490;DHT22;67776;52.012;4.736;2023-04-30T08:35:36;13.01;72.19
78490;DHT22;67776;52.012;4.736;2023-04-30T08:38:01;13.18;72.08
78490;DHT22;67776;52.012;4.736;2023-04-30T08:40:27;13.43;71.03
78490;DHT22;67776;52.012;4.736;2023-04-30T08:43:00;13.60;69.68
78490;DHT22;67776;52.012;4.736;2023-04-30T08:45:30;13.69;70.07
78490;DHT22;67776;52.012;4.736;2023-04-30T08:47:56;13.96;68.60
78490;DHT22;67776;52.012;4.736;2023-04-30T08:50:23;14.01;68.78
78490;DHT22;67776;52.012;4.736;2023-04-30T08:52:49;14.24;68.29
78490;DHT22;67776;52.012;4.736;2023-04-30T08:55:14;14.88;66.66
78490;DHT22;67776;52.012;4.736;2023-04-30T08:57:40;14.69;66.58
78490;DHT22;67776;52.012;4.736;2023-04-30T09:00:05;14.70;65.80
78490;DHT22;67776;52.012;4.736;2023-04-30T09:02:32;14.80;66.25
78490;DHT22;67776;52.012;4.736;2023-04-30T09:04:58;14.79;65.64
78490;DHT22;67776;52.012;4.736;2023-04-30T09:07:23;14.69;65.78
78490;DHT22;67776;52.012;4.736;2023-04-30T09:09:52;14.59;66.63
78490;DHT22;67776;52.012;4.736;2023-04-30T09:12:18;14.84;65.22
78490;DHT22;67776;52.012;4.736;2023-04-30T09:17:28;15.41;63.57
78490;DHT22;67776;52.012;4.736;2023-04-30T09:19:53;15.85;62.40
78490;DHT22;67776;52.012;4.736;2023-04-30T09:22:22;15.73;61.88
78490;DHT22;67776;52.012;4.736;2023-04-30T09:24:49;16.07;62.66
78490;DHT22;67776;52.012;4.736;2023-04-30T09:27:19;16.29;62.57
78490;DHT22;67776;52.012;4.736;2023-04-30T09:29:45;16.10;63.15
78490;DHT22;67776;52.012;4.736;2023-04-30T09:32:10;16.40;60.75
78490;DHT22;67776;52.012;4.736;2023-04-30T09:34:36;15.96;60.82
78490;DHT22;67776;52.012;4.736;2023-04-30T09:37:01;16.14;60.96
78490;DHT22;67776;52.012;4.736;2023-04-30T09:39:28;16.42;58.56
78490;DHT22;67776;52.012;4.736;2023-04-30T09:42:07;16.13;59.48
78490;DHT22;67776;52.012;4.736;2023-04-30T09:44:37;16.40;60.70
78490;DHT22;67776;52.012;4.736;2023-04-30T09:47:03;16.72;59.39
78490;DHT22;67776;52.012;4.736;2023-04-30T09:49:28;17.14;58.76
78490;DHT22;67776;52.012;4.736;2023-04-30T09:51:55;17.04;57.62
78490;DHT22;67776;52.012;4.736;2023-04-30T09:54:24;17.30;57.34
78490;DHT22;67776;52.012;4.736;2023-04-30T09:56:52;17.35;57.03
78490;DHT22;67776;52.012;4.736;2023-04-30T09:59:28;17.31;57.41
78490;DHT22;67776;52.012;4.736;2023-04-30T10:02:00;17.45;56.90
78490;DHT22;67776;52.012;4.736;2023-04-30T10:04:31;17.11;57.22
78490;DHT22;67776;52.012;4.736;2023-04-30T10:06:59;17.39;57.26
78490;DHT22;67776;52.012;4.736;2023-04-30T10:09:28;17.63;57.10
78490;DHT22;67776;52.012;4.736;2023-04-30T10:11:56;17.68;55.73
78490;DHT22;67776;52.012;4.736;2023-04-30T10:14:24;17.78;55.73
78490;DHT22;67776;52.012;4.736;2023-04-30T10:17:12;18.76;54.43
78490;DHT22;67776;52.012;4.736;2023-04-30T10:19:38;18.08;56.51
78490;DHT22;67776;52.012;4.736;2023-04-30T10:22:06;18.95;53.14
78490;DHT22;67776;52.012;4.736;2023-04-30T10:24:32;18.33;55.41
78490;DHT22;67776;52.012;4.736;2023-04-30T10:26:58;18.73;52.79
78490;DHT22;67776;52.012;4.736;2023-04-30T10:29:24;19.36;51.60
78490;DHT22;67776;52.012;4.736;2023-04-30T10:31:50;18.25;53.80
78490;DHT22;67776;52.012;4.736;2023-04-30T10:39:52;18.08;53.46
78490;DHT22;67776;52.012;4.736;2023-04-30T10:42:18;18.66;54.54
78490;DHT22;67776;52.012;4.736;2023-04-30T10:44:43;19.39;53.95
78490;DHT22;67776;52.012;4.736;2023-04-30T10:47:09;19.14;51.67
78490;DHT22;67776;52.012;4.736;2023-04-30T10:49:34;18.61;54.01
78490;DHT22;67776;52.012;4.736;2023-04-30T10:52:03;19.50;52.25
78490;DHT22;67776;52.012;4.736;2023-04-30T10:54:34;20.16;49.54
78490;DHT22;67776;52.012;4.736;2023-04-30T10:57:13;20.20;48.38
78490;DHT22;67776;52.012;4.736;2023-04-30T11:02:41;20.07;46.36
78490;DHT22;67776;52.012;4.736;2023-04-30T11:05:15;20.49;46.09
78490;DHT22;67776;52.012;4.736;2023-04-30T11:07:55;19.42;48.31
78490;DHT22;67776;52.012;4.736;2023-04-30T11:10:22;20.51;47.76
78490;DHT22;67776;52.012;4.736;2023-04-30T11:12:49;20.61;47.92
78490;DHT22;67776;52.012;4.736;2023-04-30T11:15:17;21.54;46.10
78490;DHT22;67776;52.012;4.736;2023-04-30T11:17:44;21.31;47.64
78490;DHT22;67776;52.012;4.736;2023-04-30T11:20:18;20.83;47.67
78490;DHT22;67776;52.012;4.736;2023-04-30T11:22:44;21.34;46.47
78490;DHT22;67776;52.012;4.736;2023-04-30T11:25:10;20.95;47.59
78490;DHT22;67776;52.012;4.736;2023-04-30T11:27:43;21.45;46.46
78490;DHT22;67776;52.012;4.736;2023-04-30T11:30:13;22.76;44.06
78490;DHT22;67776;52.012;4.736;2023-04-30T11:32:39;21.30;45.72
78490;DHT22;67776;52.012;4.736;2023-04-30T11:35:06;20.62;46.68
78490;DHT22;67776;52.012;4.736;2023-04-30T11:40:09;20.83;49.57
78490;DHT22;67776;52.012;4.736;2023-04-30T11:42:35;20.44;46.00
78490;DHT22;67776;52.012;4.736;2023-04-30T11:45:12;21.58;44.62
78490;DHT22;67776;52.012;4.736;2023-04-30T11:47:43;21.14;46.21
78490;DHT22;67776;52.012;4.736;2023-04-30T11:50:09;21.50;45.89
78490;DHT22;67776;52.012;4.736;2023-04-30T11:52:36;22.21;43.81
78490;DHT22;67776;52.012;4.736;2023-04-30T11:55:19;22.32;42.28
78490;DHT22;67776;52.012;4.736;2023-04-30T11:57:47;21.89;44.39
78490;DHT22;67776;52.012;4.736;2023-04-30T12:00:15;21.77;45.23
78490;DHT22;67776;52.012;4.736;2023-04-30T12:02:42;21.82;45.46
78490;DHT22;67776;52.012;4.736;2023-04-30T12:05:19;21.71;45.54
78490;DHT22;67776;52.012;4.736;2023-04-30T12:07:56;21.65;46.42
78490;DHT22;67776;52.012;4.736;2023-04-30T12:10:23;21.69;46.19
78490;DHT22;67776;52.012;4.736;2023-04-30T12:12:50;21.86;45.23
78490;DHT22;67776;52.012;4.736;2023-04-30T12:15:18;22.55;42.65
78490;DHT22;67776;52.012;4.736;2023-04-30T12:17:47;22.30;42.12
78490;DHT22;67776;52.012;4.736;2023-04-30T12:20:14;22.64;42.38
78490;DHT22;67776;52.012;4.736;2023-04-30T12:22:41;22.78;43.36
78490;DHT22;67776;52.012;4.736;2023-04-30T12:25:11;23.28;42.20
78490;DHT22;67776;52.012;4.736;2023-04-30T12:27:41;22.94;42.57
78490;DHT22;67776;52.012;4.736;2023-04-30T12:30:08;22.36;45.19
78490;DHT22;67776;52.012;4.736;2023-04-30T12:32:40;22.26;44.12
78490;DHT22;67776;52.012;4.736;2023-04-30T12:35:07;22.89;43.28
78490;DHT22;67776;52.012;4.736;2023-04-30T12:37:33;22.87;42.58
78490;DHT22;67776;52.012;4.736;2023-04-30T12:39:59;22.99;41.47
78490;DHT22;67776;52.012;4.736;2023-04-30T12:42:24;23.02;41.38
78490;DHT22;67776;52.012;4.736;2023-04-30T12:44:49;23.24;41.33
78490;DHT22;67776;52.012;4.736;2023-04-30T12:47:15;23.40;41.91
78490;DHT22;67776;52.012;4.736;2023-04-30T12:49:40;23.62;41.90
78490;DHT22;67776;52.012;4.736;2023-04-30T12:52:10;23.53;41.34
78490;DHT22;67776;52.012;4.736;2023-04-30T12:54:37;22.57;42.50
78490;DHT22;67776;52.012;4.736;2023-04-30T12:57:07;22.30;42.20
78490;DHT22;67776;52.012;4.736;2023-04-30T12:59:36;22.98;42.99
78490;DHT22;67776;52.012;4.736;2023-04-30T13:02:09;24.39;40.04
78490;DHT22;67776;52.012;4.736;2023-04-30T13:04:36;24.26;39.48
78490;DHT22;67776;52.012;4.736;2023-04-30T13:07:02;23.99;38.90
78490;DHT22;67776;52.012;4.736;2023-04-30T13:09:29;23.64;39.49
78490;DHT22;67776;52.012;4.736;2023-04-30T13:11:54;23.94;40.25
78490;DHT22;67776;52.012;4.736;2023-04-30T13:14:20;23.64;41.20
78490;DHT22;67776;52.012;4.736;2023-04-30T13:16:45;23.74;39.29
78490;DHT22;67776;52.012;4.736;2023-04-30T13:19:10;23.54;40.59
78490;DHT22;67776;52.012;4.736;2023-04-30T13:21:36;23.67;39.31
78490;DHT22;67776;52.012;4.736;2023-04-30T13:24:02;22.73;40.79
78490;DHT22;67776;52.012;4.736;2023-04-30T13:26:30;22.94;41.41
78490;DHT22;67776;52.012;4.736;2023-04-30T13:28:55;23.02;40.67
78490;DHT22;67776;52.012;4.736;2023-04-30T13:31:21;24.17;38.85
78490;DHT22;67776;52.012;4.736;2023-04-30T13:33:47;24.10;38.66
78490;DHT22;67776;52.012;4.736;2023-04-30T13:36:12;24.59;38.16
78490;DHT22;67776;52.012;4.736;2023-04-30T13:38:38;23.81;38.29
78490;DHT22;67776;52.012;4.736;2023-04-30T13:41:04;23.68;38.29
78490;DHT22;67776;52.012;4.736;2023-04-30T13:43:30;23.64;38.33
78490;DHT22;67776;52.012;4.736;2023-04-30T13:45:56;24.16;36.78
78490;DHT22;67776;52.012;4.736;2023-04-30T13:48:22;23.90;36.65
78490;DHT22;67776;52.012;4.736;2023-04-30T13:50:48;24.59;34.19
78490;DHT22;67776;52.012;4.736;2023-04-30T13:53:13;24.08;35.84
78490;DHT22;67776;52.012;4.736;2023-04-30T13:55:39;23.15;37.79
78490;DHT22;67776;52.012;4.736;2023-04-30T13:58:04;23.60;36.55
78490;DHT22;67776;52.012;4.736;2023-04-30T14:00:30;23.82;36.67
78490;DHT22;67776;52.012;4.736;2023-04-30T14:02:55;23.89;36.25
78490;DHT22;67776;52.012;4.736;2023-04-30T14:05:20;23.62;35.16
78490;DHT22;67776;52.012;4.736;2023-04-30T14:07:46;23.49;36.04
78490;DHT22;67776;52.012;4.736;2023-04-30T14:10:11;23.98;35.56
78490;DHT22;67776;52.012;4.736;2023-04-30T14:12:37;23.19;36.80
78490;DHT22;67776;52.012;4.736;2023-04-30T14:15:03;22.61;39.01
78490;DHT22;67776;52.012;4.736;2023-04-30T14:17:29;23.90;37.71
78490;DHT22;67776;52.012;4.736;2023-04-30T14:19:55;22.75;39.38
78490;DHT22;67776;52.012;4.736;2023-04-30T14:22:21;22.82;38.74
78490;DHT22;67776;52.012;4.736;2023-04-30T14:24:46;21.61;40.05
78490;DHT22;67776;52.012;4.736;2023-04-30T14:27:12;22.18;39.69
78490;DHT22;67776;52.012;4.736;2023-04-30T14:29:37;22.76;39.71
78490;DHT22;67776;52.012;4.736;2023-04-30T14:32:04;22.03;39.14
78490;DHT22;67776;52.012;4.736;2023-04-30T14:34:30;22.05;39.64
78490;DHT22;67776;52.012;4.736;2023-04-30T14:36:56;22.51;38.77
78490;DHT22;67776;52.012;4.736;2023-04-30T14:39:23;22.17;39.97
78490;DHT22;67776;52.012;4.736;2023-04-30T14:41:49;21.93;39.57
78490;DHT22;67776;52.012;4.736;2023-04-30T14:44:14;22.05;39.66
78490;DHT22;67776;52.012;4.736;2023-04-30T14:46:40;22.10;39.28
78490;DHT22;67776;52.012;4.736;2023-04-30T14:49:05;21.95;39.40
78490;DHT22;67776;52.012;4.736;2023-04-30T14:51:30;22.34;38.39
78490;DHT22;67776;52.012;4.736;2023-04-30T14:53:56;23.42;37.87
78490;DHT22;67776;52.012;4.736;2023-04-30T14:56:22;22.85;38.08
78490;DHT22;67776;52.012;4.736;2023-04-30T14:58:48;23.65;37.17
78490;DHT22;67776;52.012;4.736;2023-04-30T15:01:13;24.10;36.27
78490;DHT22;67776;52.012;4.736;2023-04-30T15:03:39;22.18;39.72
78490;DHT22;67776;52.012;4.736;2023-04-30T15:06:05;21.65;39.15
78490;DHT22;67776;52.012;4.736;2023-04-30T15:08:31;21.83;39.60
78490;DHT22;67776;52.012;4.736;2023-04-30T15:10:56;21.63;40.00
78490;DHT22;67776;52.012;4.736;2023-04-30T15:13:22;21.54;40.71
78490;DHT22;67776;52.012;4.736;2023-04-30T15:15:47;21.35;41.23
78490;DHT22;67776;52.012;4.736;2023-04-30T15:18:13;21.24;42.44
78490;DHT22;67776;52.012;4.736;2023-04-30T15:20:39;21.10;42.20
78490;DHT22;67776;52.012;4.736;2023-04-30T15:23:05;21.47;40.91
78490;DHT22;67776;52.012;4.736;2023-04-30T15:25:30;22.54;39.23
78490;DHT22;67776;52.012;4.736;2023-04-30T15:27:57;23.05;39.46
78490;DHT22;67776;52.012;4.736;2023-04-30T15:30:22;22.88;38.56
78490;DHT22;67776;52.012;4.736;2023-04-30T15:32:47;21.96;39.54
78490;DHT22;67776;52.012;4.736;2023-04-30T15:35:13;21.52;41.17
78490;DHT22;67776;52.012;4.736;2023-04-30T15:37:38;22.47;40.02
78490;DHT22;67776;52.012;4.736;2023-04-30T15:40:04;23.54;37.23
78490;DHT22;67776;52.012;4.736;2023-04-30T15:42:30;22.37;39.70
78490;DHT22;67776;52.012;4.736;2023-04-30T15:44:55;22.21;39.30
78490;DHT22;67776;52.012;4.736;2023-04-30T15:47:21;21.59;41.04
78490;DHT22;67776;52.012;4.736;2023-04-30T15:49:47;21.45;42.64
78490;DHT22;67776;52.012;4.736;2023-04-30T15:52:21;20.99;41.92
78490;DHT22;67776;52.012;4.736;2023-04-30T15:54:49;20.96;42.82
78490;DHT22;67776;52.012;4.736;2023-04-30T15:57:15;21.04;42.32
78490;DHT22;67776;52.012;4.736;2023-04-30T15:59:40;20.96;42.73
78490;DHT22;67776;52.012;4.736;2023-04-30T16:02:06;20.72;42.43
78490;DHT22;67776;52.012;4.736;2023-04-30T16:04:31;20.34;43.75
78490;DHT22;67776;52.012;4.736;2023-04-30T16:06:56;20.43;44.43